Time;durP1;ratioP1;P1;durP2;ratioP2;P2;SDS_P1;SDS_P2;PMS_P1;PMS_P2;Temp;Humidity;BMP_temperature;BMP_pressure;BME280_temperature;BME280_humidity;BME280_pressure;Samples;Min_cycle;Max_cycle;Signal;HPM_P1;HPM_P2
2022/02/25 00:00:37;;;;;;;14.85;6.85;;;7.30;99.90;;;;;;5080061;28;20032;-72
2022/02/25 00:03:04;;;;;;;10.48;6.78;;;7.30;99.90;;;;;;5075313;28;20060;-73
2022/02/25 00:05:29;;;;;;;10.35;7.57;;;7.20;99.90;;;;;;5064933;28;20050;-73
2022/02/25 00:07:55;;;;;;;9.35;7.82;;;7.20;99.90;;;;;;5076932;28;20028;-74
2022/02/25 00:10:21;;;;;;;13.25;7.78;;;7.20;99.90;;;;;;5076847;28;20035;-73
2022/02/25 00:12:47;;;;;;;10.02;6.90;;;7.10;99.90;;;;;;5068407;28;20020;-72
2022/02/25 00:15:13;;;;;;;16.42;11.65;;;7.10;99.90;;;;;;5061347;28;20367;-73
2022/02/25 00:17:39;;;;;;;14.70;9.88;;;7.10;99.90;;;;;;5066367;28;20034;-72
2022/02/25 00:20:05;;;;;;;12.38;8.68;;;7.00;99.90;;;;;;5082782;28;20450;-73
2022/02/25 00:22:31;;;;;;;13.60;8.68;;;7.00;99.90;;;;;;5077489;28;20043;-72
2022/02/25 00:24:57;;;;;;;13.75;9.82;;;7.00;99.90;;;;;;5074726;28;20020;-71
2022/02/25 00:27:23;;;;;;;18.48;10.70;;;7.00;99.90;;;;;;5072801;28;20126;-72
2022/02/25 00:29:48;;;;;;;9.38;7.40;;;7.00;99.90;;;;;;5074840;28;20123;-73
2022/02/25 00:32:14;;;;;;;14.27;8.85;;;7.00;99.90;;;;;;5077578;28;20032;-73
2022/02/25 00:34:40;;;;;;;11.85;7.18;;;6.90;99.90;;;;;;5059196;28;20031;-73
2022/02/25 00:37:06;;;;;;;9.20;6.50;;;6.90;99.90;;;;;;5074566;28;20020;-73
2022/02/25 00:39:31;;;;;;;14.73;6.70;;;6.90;99.90;;;;;;5067568;28;20389;-72
2022/02/25 00:41:57;;;;;;;13.27;6.43;;;6.90;99.90;;;;;;5079223;28;20030;-73
2022/02/25 00:44:23;;;;;;;8.88;6.07;;;6.80;99.90;;;;;;5071163;28;20506;-72
2022/02/25 00:46:49;;;;;;;9.82;5.45;;;6.80;99.90;;;;;;5080459;28;20054;-73
2022/02/25 00:49:14;;;;;;;13.27;6.38;;;6.80;99.90;;;;;;5077571;28;20039;-72
2022/02/25 00:51:40;;;;;;;9.82;6.15;;;6.80;99.90;;;;;;5074643;28;20394;-73
2022/02/25 00:54:06;;;;;;;13.93;7.30;;;6.80;99.90;;;;;;5073831;28;20024;-72
2022/02/25 00:56:33;;;;;;;7.57;6.50;;;6.70;99.90;;;;;;5058778;28;20052;-72
2022/02/25 00:58:58;;;;;;;9.57;6.82;;;6.80;99.90;;;;;;5074201;28;20116;-73
2022/02/25 01:01:25;;;;;;;10.80;6.38;;;6.70;99.90;;;;;;5082431;28;20107;-72
2022/02/25 01:03:50;;;;;;;10.38;7.18;;;6.70;99.90;;;;;;5062348;28;20024;-72
2022/02/25 01:06:16;;;;;;;10.13;8.07;;;6.60;99.90;;;;;;5060623;28;20073;-73
2022/02/25 01:08:42;;;;;;;8.38;7.47;;;6.60;99.90;;;;;;5075805;28;20709;-73
2022/02/25 01:11:07;;;;;;;8.02;5.82;;;6.60;99.90;;;;;;5073787;28;20040;-73
2022/02/25 01:13:33;;;;;;;7.10;5.90;;;6.60;99.90;;;;;;5077067;28;20482;-72
2022/02/25 01:15:59;;;;;;;8.73;5.47;;;6.60;99.90;;;;;;5075500;28;20024;-73
2022/02/25 01:18:25;;;;;;;3.80;3.45;;;6.60;99.90;;;;;;5061710;28;20059;-74
2022/02/25 01:20:50;;;;;;;7.78;4.63;;;6.50;99.90;;;;;;5064360;28;20509;-73
2022/02/25 01:23:16;;;;;;;5.50;4.63;;;6.50;99.90;;;;;;5074892;28;20024;-72
2022/02/25 01:25:42;;;;;;;5.32;4.32;;;6.60;99.90;;;;;;5075141;28;20024;-73
2022/02/25 01:28:08;;;;;;;8.27;5.63;;;6.60;99.90;;;;;;5058502;28;20051;-73
2022/02/25 01:30:34;;;;;;;4.97;4.47;;;6.50;99.90;;;;;;5075655;28;20032;-73
2022/02/25 01:33:00;;;;;;;9.18;6.85;;;6.50;99.90;;;;;;5078021;28;20017;-73
2022/02/25 01:35:26;;;;;;;6.82;5.10;;;6.50;99.90;;;;;;5061876;28;20438;-72
2022/02/25 01:37:55;;;;;;;9.75;4.68;;;6.60;99.90;;;;;;5076327;28;20578;-73
2022/02/25 01:40:22;;;;;;;7.13;4.57;;;6.60;99.90;;;;;;5078442;28;21487;-74
2022/02/25 01:42:49;;;;;;;6.72;4.68;;;6.60;99.90;;;;;;5064215;28;20100;-72
2022/02/25 01:45:16;;;;;;;8.40;4.68;;;6.60;99.90;;;;;;5068396;28;20028;-72
2022/02/25 01:47:42;;;;;;;6.40;5.15;;;6.70;99.90;;;;;;5067633;28;20114;-72
2022/02/25 01:50:10;;;;;;;10.13;4.93;;;6.60;99.90;;;;;;5074403;28;20179;-72
2022/02/25 01:52:36;;;;;;;5.30;4.50;;;6.70;99.90;;;;;;5080183;28;20020;-72
2022/02/25 01:55:03;;;;;;;8.15;4.57;;;6.70;99.90;;;;;;5070330;28;20020;-73
2022/02/25 01:57:29;;;;;;;11.52;5.00;;;6.60;99.90;;;;;;5084282;28;20028;-73
2022/02/25 01:59:55;;;;;;;12.30;7.60;;;6.60;99.90;;;;;;5081528;28;20612;-72
2022/02/25 02:02:22;;;;;;;28.70;20.83;;;6.50;99.90;;;;;;5076512;28;20040;-72
2022/02/25 02:04:49;;;;;;;10.52;6.70;;;6.40;99.90;;;;;;5081384;28;20024;-72
2022/02/25 02:07:15;;;;;;;21.98;17.98;;;6.40;99.90;;;;;;5080335;28;20374;-72
2022/02/25 02:09:41;;;;;;;24.40;15.70;;;6.40;99.90;;;;;;5074509;28;20048;-72
2022/02/25 02:12:07;;;;;;;7.10;6.40;;;6.50;99.90;;;;;;5083225;28;20105;-72
2022/02/25 02:14:33;;;;;;;16.05;6.95;;;6.50;99.90;;;;;;5086810;28;20024;-72
2022/02/25 02:16:59;;;;;;;10.90;6.30;;;6.50;99.90;;;;;;5078251;28;20020;-73
2022/02/25 02:19:26;;;;;;;9.07;5.63;;;6.50;99.90;;;;;;5079107;28;20078;-73
2022/02/25 02:21:56;;;;;;;12.18;5.78;;;6.40;99.90;;;;;;5081750;28;20035;-72
2022/02/25 02:24:23;;;;;;;8.23;5.07;;;6.50;99.90;;;;;;5069705;28;20598;-72
2022/02/25 02:26:51;;;;;;;12.45;5.43;;;6.50;99.90;;;;;;5071811;28;20024;-72
2022/02/25 02:29:17;;;;;;;9.65;5.25;;;6.50;99.90;;;;;;5078225;28;20518;-72
2022/02/25 02:31:43;;;;;;;12.32;5.50;;;6.50;99.90;;;;;;5082207;28;20032;-73
2022/02/25 02:34:12;;;;;;;9.00;6.03;;;6.50;99.90;;;;;;5067623;28;20045;-72
2022/02/25 02:36:39;;;;;;;7.22;5.72;;;6.50;99.90;;;;;;5070224;28;20389;-71
2022/02/25 02:39:05;;;;;;;10.18;4.70;;;6.50;99.90;;;;;;5069001;28;20028;-72
2022/02/25 02:41:32;;;;;;;11.70;6.10;;;6.50;99.90;;;;;;5082184;28;20028;-72
2022/02/25 02:43:57;;;;;;;8.73;5.60;;;6.40;99.90;;;;;;5077283;28;20085;-71
2022/02/25 02:46:23;;;;;;;5.63;4.95;;;6.40;99.90;;;;;;5077880;28;20028;-72
2022/02/25 02:48:49;;;;;;;8.73;5.38;;;6.40;99.90;;;;;;5072312;28;20032;-72
2022/02/25 02:51:15;;;;;;;10.02;5.43;;;6.50;99.90;;;;;;5071192;28;20074;-72
2022/02/25 02:53:41;;;;;;;10.55;5.63;;;6.40;99.90;;;;;;5082902;28;20034;-71
2022/02/25 02:56:20;;;;;;;6.97;5.13;;;6.40;99.90;;;;;;5065337;28;20103;-74
2022/02/25 02:58:54;;;;;;;12.50;7.05;;;6.40;99.90;;;;;;5071891;28;20035;-72
2022/02/25 03:01:20;;;;;;;9.65;5.97;;;6.30;99.90;;;;;;5073211;28;20486;-72
2022/02/25 03:03:46;;;;;;;7.93;5.22;;;6.30;99.90;;;;;;5074895;28;20071;-72
2022/02/25 03:06:11;;;;;;;8.65;5.38;;;6.30;99.90;;;;;;5080131;28;20025;-72
2022/02/25 03:08:37;;;;;;;9.02;5.45;;;6.20;99.90;;;;;;5075504;28;20032;-72
2022/02/25 03:11:03;;;;;;;10.05;5.07;;;6.10;99.90;;;;;;5085342;28;20025;-72
2022/02/25 03:13:29;;;;;;;8.60;5.65;;;6.00;99.90;;;;;;5074166;28;20020;-72
2022/02/25 03:15:54;;;;;;;8.82;5.50;;;6.00;99.90;;;;;;5088868;28;20024;-73
2022/02/25 03:18:20;;;;;;;8.57;5.85;;;6.00;99.90;;;;;;5072589;28;20496;-72
2022/02/25 03:20:46;;;;;;;15.10;6.47;;;6.00;99.90;;;;;;5078081;28;20032;-72
2022/02/25 03:23:12;;;;;;;7.45;5.10;;;6.10;99.90;;;;;;5083833;28;20076;-74
2022/02/25 03:25:38;;;;;;;7.95;6.30;;;6.20;99.90;;;;;;5081806;28;20016;-73
2022/02/25 03:28:05;;;;;;;8.68;5.45;;;6.20;99.90;;;;;;5076055;28;20516;-72
2022/02/25 03:30:31;;;;;;;10.70;6.93;;;6.30;99.90;;;;;;5088444;28;20064;-73
2022/02/25 03:32:56;;;;;;;14.98;6.53;;;6.30;99.90;;;;;;5086228;28;20051;-73
2022/02/25 03:35:22;;;;;;;12.13;7.53;;;6.30;99.90;;;;;;5062644;28;20131;-73
2022/02/25 03:37:49;;;;;;;11.63;6.85;;;6.30;99.90;;;;;;5071050;28;20166;-73
2022/02/25 03:40:15;;;;;;;10.10;5.95;;;6.40;99.90;;;;;;5089599;28;20051;-74
2022/02/25 03:42:42;;;;;;;10.13;6.40;;;6.40;99.90;;;;;;5061153;28;20028;-72
2022/02/25 03:45:09;;;;;;;16.73;7.07;;;6.40;99.90;;;;;;5075635;28;20032;-73
2022/02/25 03:47:35;;;;;;;11.07;6.70;;;6.40;99.90;;;;;;5086119;28;20113;-72
2022/02/25 03:50:03;;;;;;;9.27;6.57;;;6.50;99.90;;;;;;5056207;28;20107;-73
2022/02/25 03:52:29;;;;;;;8.90;6.25;;;6.60;99.90;;;;;;5070092;28;20016;-73
2022/02/25 03:54:55;;;;;;;10.52;6.43;;;6.60;99.90;;;;;;5085859;28;20390;-73
2022/02/25 03:57:21;;;;;;;8.27;6.05;;;6.80;99.90;;;;;;5071575;28;20077;-73
2022/02/25 03:59:46;;;;;;;9.18;6.07;;;6.80;99.90;;;;;;5078236;28;21667;-73
2022/02/25 04:02:12;;;;;;;8.70;6.10;;;6.90;99.90;;;;;;5061390;28;20040;-73
2022/02/25 04:04:38;;;;;;;9.07;5.22;;;7.00;99.90;;;;;;5070797;28;20027;-73
2022/02/25 04:07:04;;;;;;;8.85;5.97;;;7.00;99.90;;;;;;5072160;28;20028;-74
2022/02/25 04:09:30;;;;;;;6.97;5.25;;;7.10;99.90;;;;;;5081736;28;20028;-74
2022/02/25 04:11:56;;;;;;;5.57;4.70;;;7.10;99.90;;;;;;5080270;28;20024;-73
2022/02/25 04:14:22;;;;;;;5.80;4.70;;;7.20;99.90;;;;;;5057575;28;21268;-75
2022/02/25 04:16:49;;;;;;;8.43;5.68;;;7.30;99.90;;;;;;5088574;28;20016;-74
2022/02/25 04:19:16;;;;;;;7.57;4.65;;;7.30;99.90;;;;;;5082417;28;20028;-74
2022/02/25 04:21:43;;;;;;;13.98;5.10;;;7.20;99.90;;;;;;5075376;28;20042;-74
2022/02/25 04:24:09;;;;;;;8.98;5.15;;;7.30;99.90;;;;;;5085898;28;20031;-74
2022/02/25 04:26:35;;;;;;;17.02;4.90;;;7.30;99.90;;;;;;5082320;28;20111;-74
2022/02/25 04:29:00;;;;;;;6.80;5.38;;;7.30;99.90;;;;;;5071615;28;20100;-74
2022/02/25 04:31:26;;;;;;;7.10;5.03;;;7.30;99.90;;;;;;5063764;28;20028;-73
2022/02/25 04:33:52;;;;;;;8.63;5.47;;;7.30;99.90;;;;;;5074424;28;20028;-73
2022/02/25 04:36:21;;;;;;;7.55;5.30;;;7.30;99.90;;;;;;5062284;28;20020;-73
2022/02/25 04:38:54;;;;;;;8.65;5.85;;;7.30;99.90;;;;;;5078485;28;20028;-74
2022/02/25 04:41:21;;;;;;;10.63;5.30;;;7.40;99.90;;;;;;5071072;28;20067;-73
2022/02/25 04:43:47;;;;;;;5.60;4.45;;;7.40;99.90;;;;;;5083413;28;20043;-74
2022/02/25 04:46:20;;;;;;;7.63;5.28;;;7.40;99.90;;;;;;5079233;28;20036;-74
2022/02/25 04:48:57;;;;;;;10.43;5.82;;;7.40;99.90;;;;;;5076532;28;20135;-75
2022/02/25 04:51:23;;;;;;;9.32;6.22;;;7.40;99.90;;;;;;5074847;28;20430;-74
2022/02/25 04:53:49;;;;;;;12.50;6.00;;;7.40;99.90;;;;;;5074799;28;20052;-75
2022/02/25 04:56:15;;;;;;;7.75;6.20;;;7.40;99.90;;;;;;5066701;28;20050;-74
2022/02/25 04:58:41;;;;;;;5.72;5.22;;;7.40;99.90;;;;;;5076118;28;20068;-73
2022/02/25 05:01:07;;;;;;;13.43;5.95;;;7.30;99.90;;;;;;5061127;28;20434;-73
2022/02/25 05:03:33;;;;;;;9.57;6.55;;;7.30;99.90;;;;;;5075284;28;20024;-74
2022/02/25 05:06:00;;;;;;;9.38;7.40;;;7.30;99.90;;;;;;5075408;28;20038;-73
2022/02/25 05:08:26;;;;;;;8.23;6.38;;;7.30;99.90;;;;;;5062998;28;20023;-73
2022/02/25 05:10:52;;;;;;;14.27;7.28;;;7.40;99.90;;;;;;5059465;28;20111;-72
2022/02/25 05:13:18;;;;;;;11.13;6.97;;;7.20;99.90;;;;;;5077261;28;20035;-73
2022/02/25 05:21:13;;;;;;;12.18;7.80;;;6.80;99.90;;;;;;5074639;28;20039;-74
2022/02/25 05:23:39;;;;;;;10.45;7.07;;;6.70;99.90;;;;;;5086782;28;20098;-73
2022/02/25 05:26:05;;;;;;;12.15;7.30;;;6.80;99.90;;;;;;5079190;28;20662;-74
2022/02/25 05:28:31;;;;;;;12.65;8.77;;;6.60;99.90;;;;;;5086014;28;20028;-74
2022/02/25 05:30:57;;;;;;;16.20;9.45;;;6.50;99.90;;;;;;5074518;28;20032;-74
2022/02/25 05:33:22;;;;;;;13.48;11.35;;;6.30;99.90;;;;;;5084592;28;20089;-74
2022/02/25 05:35:49;;;;;;;15.85;9.65;;;6.20;99.90;;;;;;5077147;28;20467;-74
2022/02/25 05:38:15;;;;;;;11.50;9.20;;;6.10;99.90;;;;;;5090294;28;20048;-74
2022/02/25 05:40:41;;;;;;;13.07;9.55;;;6.10;99.90;;;;;;5066640;28;20024;-74
2022/02/25 05:43:14;;;;;;;15.25;10.25;;;6.00;99.90;;;;;;5078371;28;20028;-75
2022/02/25 05:45:40;;;;;;;14.48;9.82;;;6.00;99.90;;;;;;5086449;28;20146;-74
2022/02/25 05:48:06;;;;;;;15.20;9.82;;;6.10;99.90;;;;;;5076613;28;20461;-74
2022/02/25 05:50:32;;;;;;;17.95;10.48;;;6.00;99.90;;;;;;5074629;28;20052;-74
2022/02/25 05:52:58;;;;;;;11.77;9.35;;;6.00;99.90;;;;;;5080941;28;20025;-73
2022/02/25 05:55:24;;;;;;;31.00;12.52;;;6.10;99.90;;;;;;5073909;28;20121;-74
2022/02/25 05:57:51;;;;;;;16.15;11.68;;;6.20;99.90;;;;;;5073535;28;20592;-74
2022/02/25 06:00:18;;;;;;;25.85;11.80;;;6.20;99.90;;;;;;5082974;28;20536;-74
2022/02/25 06:02:46;;;;;;;24.02;13.85;;;6.20;99.90;;;;;;5088053;28;20028;-73
2022/02/25 06:05:32;;;;;;;18.50;12.15;;;6.10;99.90;;;;;;5083670;28;20032;-74
2022/02/25 06:08:00;;;;;;;17.17;12.75;;;6.20;99.90;;;;;;5068274;28;20066;-72
2022/02/25 06:10:26;;;;;;;21.90;15.05;;;6.20;99.90;;;;;;5061946;28;20063;-72
2022/02/25 06:12:53;;;;;;;20.58;12.10;;;6.30;99.90;;;;;;5075101;28;20030;-76
2022/02/25 06:15:19;;;;;;;17.50;12.55;;;6.30;99.90;;;;;;5080990;28;20086;-74
2022/02/25 06:17:47;;;;;;;17.88;12.55;;;6.40;99.90;;;;;;5072587;28;20012;-74
2022/02/25 06:20:13;;;;;;;22.23;11.18;;;6.50;99.90;;;;;;5078426;28;20024;-74
2022/02/25 06:22:39;;;;;;;12.88;10.73;;;6.70;99.90;;;;;;5085863;28;20585;-73
2022/02/25 06:25:06;;;;;;;18.20;12.45;;;6.80;99.90;;;;;;5092294;28;20625;-73
2022/02/25 06:27:32;;;;;;;12.50;10.52;;;6.80;99.90;;;;;;5091552;28;20050;-75
2022/02/25 06:29:58;;;;;;;12.13;10.20;;;7.00;99.90;;;;;;5066789;28;20474;-74
2022/02/25 06:32:24;;;;;;;27.50;14.95;;;7.00;99.90;;;;;;5082848;28;20016;-74
2022/02/25 06:34:49;;;;;;;15.18;11.82;;;7.10;99.90;;;;;;5091147;28;20023;-74
2022/02/25 06:37:15;;;;;;;18.75;13.55;;;7.10;99.90;;;;;;5068606;28;20154;-74
2022/02/25 06:39:45;;;;;;;14.88;11.15;;;7.20;99.90;;;;;;5079915;28;20288;-74
2022/02/25 06:42:11;;;;;;;16.02;11.20;;;7.30;99.90;;;;;;5071960;28;20031;-74
2022/02/25 06:44:36;;;;;;;13.50;10.73;;;7.50;99.90;;;;;;5073384;28;20045;-74
2022/02/25 06:47:02;;;;;;;23.98;12.20;;;7.60;99.90;;;;;;5070946;28;20024;-75
2022/02/25 06:49:28;;;;;;;15.73;11.15;;;7.60;99.90;;;;;;5071703;28;20102;-74
2022/02/25 06:51:54;;;;;;;18.13;12.57;;;7.70;99.90;;;;;;5073430;28;20040;-76
2022/02/25 06:54:19;;;;;;;14.50;10.48;;;7.80;99.90;;;;;;5090811;28;20032;-74
2022/02/25 06:56:45;;;;;;;17.48;11.07;;;7.90;99.90;;;;;;5074668;28;20473;-74
2022/02/25 06:59:11;;;;;;;16.63;10.30;;;7.90;99.90;;;;;;5084185;28;20028;-74
2022/02/25 07:01:37;;;;;;;14.10;9.95;;;8.00;99.90;;;;;;5076151;28;20055;-74
2022/02/25 07:04:04;;;;;;;18.23;11.18;;;8.10;99.90;;;;;;5071461;28;20035;-74
2022/02/25 07:06:30;;;;;;;25.55;11.88;;;8.20;99.90;;;;;;5072853;28;20021;-73
2022/02/25 07:08:55;;;;;;;20.33;10.95;;;8.30;99.90;;;;;;5074793;28;20054;-73
2022/02/25 07:11:27;;;;;;;21.15;12.20;;;8.30;99.90;;;;;;5076807;28;20028;-76
2022/02/25 07:14:05;;;;;;;;;;;8.40;99.90;;;;;;5072671;28;20485;-75
2022/02/25 07:16:35;;;;;;;15.93;12.35;;;8.60;99.90;;;;;;5074685;28;19990;-74
2022/02/25 07:19:00;;;;;;;18.27;10.65;;;8.70;99.90;;;;;;5071856;28;20051;-76
2022/02/25 07:21:26;;;;;;;16.05;10.07;;;8.70;99.90;;;;;;5086837;28;20055;-75
2022/02/25 07:23:52;;;;;;;15.32;11.15;;;8.70;99.90;;;;;;5069799;28;20028;-75
2022/02/25 07:26:18;;;;;;;15.50;10.25;;;8.80;99.90;;;;;;5090506;28;20435;-77
2022/02/25 07:28:44;;;;;;;19.00;12.05;;;8.90;99.90;;;;;;5088478;28;20100;-69
2022/02/25 07:31:10;;;;;;;21.83;12.18;;;9.00;99.90;;;;;;5075585;28;20095;-67
2022/02/25 07:33:36;;;;;;;20.73;11.15;;;9.00;99.90;;;;;;5077198;28;20027;-67
2022/02/25 07:36:02;;;;;;;16.45;12.65;;;9.10;99.90;;;;;;5082765;28;20039;-67
2022/02/25 07:38:27;;;;;;;14.82;12.75;;;9.30;99.90;;;;;;5063460;28;20032;-67
2022/02/25 07:40:53;;;;;;;20.90;12.60;;;9.40;99.90;;;;;;5088801;28;20032;-67
2022/02/25 07:43:19;;;;;;;21.48;11.07;;;9.50;99.90;;;;;;5085218;28;20031;-69
2022/02/25 07:45:49;;;;;;;21.10;12.05;;;9.50;99.90;;;;;;5073011;28;20043;-70
2022/02/25 07:48:17;;;;;;;15.00;11.73;;;9.60;99.90;;;;;;5065688;28;20109;-70
2022/02/25 07:50:45;;;;;;;18.65;13.10;;;9.70;99.90;;;;;;5059020;28;20024;-69
2022/02/25 07:53:12;;;;;;;27.70;13.45;;;9.80;99.90;;;;;;5065651;28;20417;-68
2022/02/25 07:55:38;;;;;;;31.35;16.40;;;9.90;99.90;;;;;;5087862;28;20020;-67
2022/02/25 07:58:04;;;;;;;26.05;16.65;;;10.00;99.90;;;;;;5105301;28;20058;-67
2022/02/25 08:00:30;;;;;;;32.45;17.45;;;10.00;99.90;;;;;;5079036;28;20032;-68
2022/02/25 08:02:56;;;;;;;28.85;15.82;;;10.00;99.90;;;;;;5072830;28;20028;-68
2022/02/25 08:05:23;;;;;;;27.00;14.30;;;10.00;99.90;;;;;;5072416;28;20059;-67
2022/02/25 08:07:49;;;;;;;28.35;14.98;;;10.20;99.90;;;;;;5070786;28;20025;-68
2022/02/25 08:10:15;;;;;;;24.85;15.07;;;10.30;99.90;;;;;;5061926;28;21272;-68
2022/02/25 08:12:42;;;;;;;26.95;13.95;;;10.20;99.90;;;;;;5082808;28;20016;-69
2022/02/25 08:15:09;;;;;;;19.73;15.25;;;10.10;99.90;;;;;;5091401;28;20069;-68
2022/02/25 08:17:36;;;;;;;22.58;15.70;;;10.00;99.90;;;;;;5078194;28;20020;-68
2022/02/25 08:20:03;;;;;;;25.85;16.27;;;10.00;99.90;;;;;;5062734;28;20040;-67
2022/02/25 08:22:29;;;;;;;25.85;15.50;;;10.00;99.90;;;;;;5083761;28;20385;-67
2022/02/25 08:24:55;;;;;;;30.83;16.55;;;9.90;99.90;;;;;;5088064;28;20069;-68
2022/02/25 08:27:21;;;;;;;21.23;17.55;;;9.80;99.90;;;;;;5082249;28;20093;-67
2022/02/25 08:29:46;;;;;;;25.23;16.55;;;9.70;99.90;;;;;;5080762;28;20035;-67
2022/02/25 08:32:12;;;;;;;24.88;17.95;;;9.60;99.90;;;;;;5088234;28;20040;-66
2022/02/25 08:34:39;;;;;;;28.42;13.57;;;9.70;99.90;;;;;;5073523;28;20016;-67
2022/02/25 08:37:06;;;;;;;17.75;13.95;;;9.70;99.90;;;;;;5073196;28;20013;-66
2022/02/25 08:39:32;;;;;;;20.77;15.02;;;9.80;99.90;;;;;;5073091;28;20025;-68
2022/02/25 08:41:58;;;;;;;19.42;15.07;;;9.70;99.90;;;;;;5067534;28;20043;-67
2022/02/25 08:44:24;;;;;;;23.38;16.75;;;9.60;99.90;;;;;;5071234;28;20028;-68
2022/02/25 08:46:50;;;;;;;18.85;16.30;;;9.80;99.90;;;;;;5070748;28;20125;-67
2022/02/25 08:49:16;;;;;;;21.73;14.55;;;9.80;99.90;;;;;;5084748;28;20083;-66
2022/02/25 08:51:43;;;;;;;19.27;14.38;;;9.90;99.90;;;;;;5072303;28;20024;-66
2022/02/25 08:54:10;;;;;;;20.73;13.77;;;10.00;99.90;;;;;;5070246;28;20020;-70
2022/02/25 08:56:38;;;;;;;18.92;13.82;;;10.10;99.90;;;;;;5080951;28;20489;-66
2022/02/25 08:59:05;;;;;;;20.92;15.07;;;10.20;99.90;;;;;;5089325;28;20020;-68
2022/02/25 09:01:32;;;;;;;15.55;11.70;;;10.30;99.90;;;;;;5073619;28;20028;-68
2022/02/25 09:04:01;;;;;;;16.80;14.55;;;10.50;99.90;;;;;;5070504;28;20441;-67
2022/02/25 09:06:29;;;;;;;21.17;14.23;;;10.60;99.90;;;;;;5061754;28;20089;-68
2022/02/25 09:08:56;;;;;;;17.15;13.18;;;10.70;99.90;;;;;;5089814;28;20024;-71
2022/02/25 09:11:22;;;;;;;19.92;12.00;;;10.80;99.90;;;;;;5074958;28;20024;-67
2022/02/25 09:13:49;;;;;;;19.75;12.45;;;10.70;99.90;;;;;;5068953;28;20189;-67
2022/02/25 09:16:15;;;;;;;13.77;10.55;;;10.70;99.90;;;;;;5071928;28;20025;-67
2022/02/25 09:18:41;;;;;;;16.90;11.00;;;10.60;99.90;;;;;;5070732;28;20386;-67
2022/02/25 09:21:07;;;;;;;15.15;11.38;;;10.40;99.90;;;;;;5056939;28;20063;-66
2022/02/25 09:23:32;;;;;;;15.60;12.05;;;10.40;99.90;;;;;;5069350;28;20024;-67
2022/02/25 09:25:59;;;;;;;18.58;11.05;;;10.50;99.90;;;;;;5071023;28;20054;-67
2022/02/25 09:28:25;;;;;;;18.88;12.25;;;10.50;99.90;;;;;;5074024;28;20039;-69
2022/02/25 09:30:52;;;;;;;22.20;16.00;;;10.60;99.90;;;;;;5057785;28;20025;-71
2022/02/25 09:33:18;;;;;;;20.02;15.75;;;10.60;99.90;;;;;;5062016;28;20040;-67
2022/02/25 09:35:43;;;;;;;14.45;12.85;;;10.60;99.90;;;;;;5075515;28;20067;-69
2022/02/25 09:38:09;;;;;;;25.15;12.38;;;10.60;99.90;;;;;;5077843;28;20743;-71
2022/02/25 09:40:37;;;;;;;15.98;13.05;;;10.70;99.90;;;;;;5070470;28;20104;-69
2022/02/25 09:43:03;;;;;;;25.98;12.68;;;10.80;99.90;;;;;;5078306;28;20032;-67
2022/02/25 09:45:29;;;;;;;20.08;11.57;;;10.80;99.90;;;;;;5069710;28;20023;-66
2022/02/25 09:47:54;;;;;;;20.08;9.55;;;10.80;99.90;;;;;;5064895;28;20023;-67
2022/02/25 09:50:22;;;;;;;17.40;9.35;;;10.90;99.90;;;;;;5070416;28;20052;-67
2022/02/25 09:52:48;;;;;;;19.20;9.75;;;10.80;99.90;;;;;;5086056;28;20016;-67
2022/02/25 09:55:24;;;;;;;16.98;10.75;;;10.70;99.90;;;;;;5056587;28;20025;-66
2022/02/25 09:57:50;;;;;;;17.85;10.77;;;10.60;99.90;;;;;;5070622;28;20474;-67
2022/02/25 10:00:16;;;;;;;17.15;10.18;;;10.60;99.90;;;;;;5086232;28;20080;-68
2022/02/25 10:02:45;;;;;;;15.52;10.27;;;10.60;99.90;;;;;;5061322;28;20115;-69
2022/02/25 10:05:16;;;;;;;20.92;9.88;;;10.50;99.90;;;;;;5073465;28;20432;-66
2022/02/25 10:07:43;;;;;;;17.67;9.95;;;10.50;99.90;;;;;;5070897;28;20506;-72
2022/02/25 10:10:10;;;;;;;16.85;9.40;;;10.40;99.90;;;;;;5065182;28;20028;-69
2022/02/25 10:12:37;;;;;;;31.33;10.73;;;10.40;99.90;;;;;;5078477;28;20110;-67
2022/02/25 10:15:04;;;;;;;20.50;9.73;;;10.40;99.90;;;;;;5082179;28;20078;-67
2022/02/25 10:17:30;;;;;;;19.63;10.52;;;10.30;99.90;;;;;;5078454;28;20062;-68
2022/02/25 10:19:59;;;;;;;16.25;10.20;;;10.20;99.90;;;;;;5090618;28;20036;-66
2022/02/25 10:22:39;;;;;;;17.00;11.70;;;10.20;99.90;;;;;;5089443;28;20042;-69
2022/02/25 10:25:08;;;;;;;19.55;11.85;;;10.20;99.90;;;;;;5091160;28;20035;-69
2022/02/25 10:27:37;;;;;;;15.35;11.80;;;10.20;99.90;;;;;;5080576;28;20367;-67
2022/02/25 10:30:15;;;;;;;18.83;10.43;;;10.20;99.90;;;;;;5064790;28;20036;-67
2022/02/25 10:32:41;;;;;;;16.77;10.95;;;10.20;99.90;;;;;;5076414;28;20020;-69
2022/02/25 10:35:33;;;;;;;14.38;10.90;;;10.20;99.90;;;;;;5079450;28;20131;-67
2022/02/25 10:38:08;;;;;;;15.60;12.77;;;10.30;99.90;;;;;;5074323;28;20210;-66
2022/02/25 10:40:39;;;;;;;12.32;10.52;;;10.30;99.90;;;;;;5063138;28;20486;-67
2022/02/25 10:43:09;;;;;;;16.00;10.45;;;10.30;99.90;;;;;;5090291;28;20557;-67
2022/02/25 10:45:40;;;;;;;16.70;11.43;;;10.30;99.90;;;;;;5091903;28;20100;-67
2022/02/25 10:48:09;;;;;;;21.98;12.07;;;10.30;99.90;;;;;;5072114;28;20095;-68
2022/02/25 10:50:51;;;;;;;17.60;11.40;;;10.40;99.90;;;;;;5072804;28;20030;-67
2022/02/25 10:53:25;;;;;;;22.13;13.30;;;10.40;99.90;;;;;;5080807;28;20074;-68
2022/02/25 10:55:51;;;;;;;17.20;12.88;;;10.20;99.90;;;;;;5065232;28;20020;-68
2022/02/25 10:58:17;;;;;;;22.08;12.55;;;9.90;99.90;;;;;;5082194;28;20579;-68
2022/02/25 11:00:43;;;;;;;24.35;13.27;;;9.80;99.90;;;;;;5080371;28;20024;-67
2022/02/25 11:03:17;;;;;;;16.17;14.52;;;9.70;99.90;;;;;;5077606;28;20025;-67
2022/02/25 11:05:44;;;;;;;29.27;15.73;;;9.80;99.90;;;;;;5080410;28;20027;-69
2022/02/25 11:08:10;;;;;;;21.65;16.13;;;9.80;99.90;;;;;;5067187;28;20513;-66
2022/02/25 11:10:37;;;;;;;23.05;15.70;;;9.80;99.90;;;;;;5082307;28;20029;-67
2022/02/25 11:13:05;;;;;;;19.90;16.40;;;9.70;99.90;;;;;;5067240;28;20056;-68
2022/02/25 11:15:36;;;;;;;26.33;15.90;;;9.70;99.90;;;;;;5078875;28;20024;-67
2022/02/25 11:18:03;;;;;;;21.75;18.73;;;9.80;99.90;;;;;;5079611;28;20024;-68
2022/02/25 11:20:33;;;;;;;25.35;18.58;;;9.70;99.90;;;;;;5065388;28;20025;-68
2022/02/25 11:23:10;;;;;;;24.25;17.90;;;9.80;99.90;;;;;;5077245;28;20028;-67
2022/02/25 11:25:38;;;;;;;19.60;17.42;;;9.90;99.90;;;;;;5088575;28;20111;-68
2022/02/25 11:28:05;;;;;;;17.38;15.52;;;10.00;99.90;;;;;;5072949;28;20025;-67
2022/02/25 11:30:33;;;;;;;20.73;15.07;;;10.10;99.90;;;;;;5079531;28;20056;-68
2022/02/25 11:33:07;;;;;;;18.08;15.60;;;10.30;99.90;;;;;;5079925;28;20028;-69
2022/02/25 11:35:38;;;;;;;22.67;15.05;;;10.50;99.90;;;;;;5062812;28;20028;-68
2022/02/25 11:38:14;;;;;;;16.50;14.13;;;10.60;99.90;;;;;;5080290;28;20069;-65
2022/02/25 11:40:48;;;;;;;15.82;14.23;;;10.90;99.90;;;;;;5069689;28;20024;-67
2022/02/25 11:43:14;;;;;;;15.73;14.15;;;11.00;99.90;;;;;;5060306;28;20726;-67
2022/02/25 11:45:53;;;;;;;16.83;14.65;;;11.10;99.90;;;;;;5082135;28;20028;-66
2022/02/25 11:48:45;;;;;;;19.17;14.00;;;11.10;99.90;;;;;;5074456;28;20102;-66
2022/02/25 11:51:31;;;;;;;24.65;15.07;;;11.00;99.90;;;;;;5077011;28;20058;-67
2022/02/25 11:54:28;;;;;;;19.30;14.48;;;11.00;99.90;;;;;;5080395;28;20060;-65
2022/02/25 11:57:01;;;;;;;15.90;14.30;;;11.10;99.90;;;;;;5081595;28;20482;-67
2022/02/25 11:59:33;;;;;;;18.38;14.18;;;11.20;99.90;;;;;;5075133;28;20110;-65
2022/02/25 12:02:16;;;;;;;19.55;14.30;;;11.30;99.90;;;;;;5076922;28;20386;-67
2022/02/25 12:04:45;;;;;;;20.85;15.55;;;11.30;99.90;;;;;;5078182;28;20104;-67
2022/02/25 12:07:29;;;;;;;16.15;14.55;;;11.30;99.90;;;;;;5065164;28;20024;-66
2022/02/25 12:10:16;;;;;;;25.98;14.65;;;11.20;99.90;;;;;;5075513;28;20063;-65
2022/02/25 12:12:57;;;;;;;19.98;14.15;;;11.20;99.90;;;;;;5075544;28;20021;-67
2022/02/25 12:15:37;;;;;;;19.27;14.80;;;11.20;99.90;;;;;;5071538;28;20058;-65
2022/02/25 12:18:05;;;;;;;21.77;14.80;;;11.30;99.90;;;;;;5078666;28;20988;-66
2022/02/25 12:20:37;;;;;;;21.92;15.75;;;11.40;99.90;;;;;;5068616;28;20062;-67
2022/02/25 12:23:09;;;;;;;20.73;15.27;;;11.40;99.90;;;;;;5059357;28;20489;-66
2022/02/25 12:25:40;;;;;;;22.20;18.35;;;11.50;99.90;;;;;;5075726;28;20437;-66
2022/02/25 12:28:27;;;;;;;21.88;17.52;;;11.50;99.90;;;;;;5078142;28;20040;-66
2022/02/25 12:31:05;;;;;;;21.83;17.05;;;11.50;99.90;;;;;;5079561;28;20047;-67
2022/02/25 12:33:44;;;;;;;19.73;17.48;;;11.60;99.90;;;;;;5076372;28;20027;-66
2022/02/25 12:36:21;;;;;;;22.52;19.02;;;11.70;99.90;;;;;;5077684;28;20115;-66
2022/02/25 12:38:49;;;;;;;21.30;18.80;;;11.60;99.90;;;;;;5079665;28;20020;-66
2022/02/25 12:41:19;;;;;;;20.90;17.23;;;11.40;99.90;;;;;;5079571;28;20033;-68
2022/02/25 12:43:58;;;;;;;24.63;16.55;;;11.50;99.90;;;;;;5074792;28;20085;-65
2022/02/25 12:46:30;;;;;;;20.88;18.45;;;11.70;99.90;;;;;;5078639;28;20092;-65
2022/02/25 12:48:56;;;;;;;24.60;16.08;;;11.80;99.90;;;;;;5079800;28;20106;-65